createdAt,value
2023-03-20T00:02:18.349Z,55.42
2023-03-20T00:04:47.017Z,53.00
2023-03-20T00:07:15.533Z,54.78
2023-03-20T00:09:44.080Z,48.53
2023-03-20T00:12:16.498Z,49.85
2023-03-20T00:14:45.163Z,50.38
2023-03-20T00:17:18.362Z,49.75
2023-03-20T00:19:47.224Z,45.45
2023-03-20T00:22:15.559Z,45.65
2023-03-20T00:24:44.248Z,41.92
2023-03-20T00:27:16.406Z,43.08
2023-03-20T00:29:45.972Z,45.13
2023-03-20T00:32:15.467Z,44.58
2023-03-20T00:34:44.221Z,46.28
2023-03-20T00:37:14.624Z,46.88
2023-03-20T00:39:43.606Z,63.75
2023-03-20T00:42:19.132Z,55.08
2023-03-20T00:44:59.723Z,52.85
2023-03-20T00:47:30.282Z,59.63
2023-03-20T00:50:03.055Z,58.45
2023-03-20T00:52:31.538Z,54.90
2023-03-20T00:55:01.162Z,52.50
2023-03-20T00:57:36.393Z,49.03
2023-03-20T01:00:08.453Z,52.95
2023-03-20T01:02:36.736Z,53.25
2023-03-20T01:05:06.238Z,50.00
2023-03-20T01:07:34.593Z,52.20
2023-03-20T01:10:05.334Z,50.35
2023-03-20T01:12:33.692Z,57.38
2023-03-20T01:15:02.290Z,55.42
2023-03-20T01:17:30.957Z,52.38
2023-03-20T01:19:59.535Z,53.78
2023-03-20T01:22:27.666Z,51.05
2023-03-20T01:24:56.177Z,50.95
2023-03-20T01:27:24.584Z,52.75
2023-03-20T01:29:53.257Z,53.00
2023-03-20T01:32:21.583Z,51.25
2023-03-20T01:34:53.272Z,54.42
2023-03-20T01:37:26.291Z,54.63
2023-03-20T01:39:56.790Z,60.78
2023-03-20T01:42:25.759Z,51.10
2023-03-20T01:44:54.412Z,54.40
2023-03-20T01:47:24.152Z,46.65
2023-03-20T01:50:14.921Z,48.45
2023-03-20T01:52:43.451Z,45.03
2023-03-20T01:55:12.680Z,49.05
2023-03-20T01:57:42.141Z,50.75
2023-03-20T02:00:12.062Z,52.10
2023-03-20T02:02:47.255Z,49.97
2023-03-20T02:05:32.649Z,50.63
2023-03-20T02:08:11.107Z,55.03
2023-03-20T02:10:41.043Z,50.45
2023-03-20T02:13:22.738Z,51.95
2023-03-20T02:15:57.480Z,54.03
2023-03-20T02:18:59.156Z,53.00
2023-03-20T02:21:47.888Z,51.90
2023-03-20T02:24:19.943Z,56.20
2023-03-20T02:26:53.526Z,51.95
2023-03-20T02:29:42.859Z,52.05
2023-03-20T02:32:18.878Z,52.58
2023-03-20T02:34:56.502Z,55.05
2023-03-20T02:37:31.756Z,52.75
2023-03-20T02:40:01.003Z,51.55
2023-03-20T02:42:31.905Z,54.65
2023-03-20T02:45:14.238Z,50.08
2023-03-20T02:47:49.843Z,50.90
2023-03-20T02:50:32.908Z,48.20
2023-03-20T02:53:18.477Z,48.30
2023-03-20T02:55:53.005Z,50.17
2023-03-20T02:58:48.362Z,46.58
2023-03-20T03:01:21.041Z,54.58
2023-03-20T03:03:52.875Z,69.22
2023-03-20T03:06:31.722Z,75.03
2023-03-20T03:09:12.885Z,60.22
2023-03-20T03:12:04.029Z,51.50
2023-03-20T03:14:33.491Z,48.72
2023-03-20T03:17:03.370Z,52.50
2023-03-20T03:19:33.254Z,56.60
2023-03-20T03:22:01.855Z,58.50
2023-03-20T03:24:40.931Z,64.18
2023-03-20T03:27:17.702Z,73.30
2023-03-20T03:29:48.740Z,72.35
2023-03-20T03:32:44.376Z,73.90
2023-03-20T03:35:18.378Z,67.63
2023-03-20T03:38:01.352Z,77.25
2023-03-20T03:40:34.466Z,69.35
2023-03-20T03:43:05.126Z,66.03
2023-03-20T03:45:39.871Z,57.47
2023-03-20T03:48:10.405Z,55.35
2023-03-20T03:50:51.074Z,50.20
2023-03-20T03:53:23.436Z,52.90
2023-03-20T03:55:54.118Z,63.30
2023-03-20T03:58:29.292Z,68.18
2023-03-20T04:01:01.769Z,61.75
2023-03-20T04:03:38.854Z,61.35
2023-03-20T04:06:10.140Z,55.33
2023-03-20T04:08:40.581Z,59.75
2023-03-20T04:11:19.124Z,52.20
2023-03-20T04:13:49.993Z,56.33
2023-03-20T04:16:19.876Z,57.60
2023-03-20T04:18:48.571Z,54.30
2023-03-20T04:21:19.228Z,49.55
2023-03-20T04:23:47.888Z,46.35
2023-03-20T04:26:17.339Z,47.25
2023-03-20T04:28:47.703Z,54.33
2023-03-20T04:31:19.246Z,46.42
2023-03-20T04:34:13.683Z,52.10
2023-03-20T04:36:43.606Z,47.55
2023-03-20T04:39:14.620Z,44.28
2023-03-20T04:41:44.071Z,40.65
2023-03-20T04:44:13.705Z,46.08
2023-03-20T04:46:51.282Z,49.83
2023-03-20T04:49:19.730Z,57.38
2023-03-20T04:51:49.705Z,63.28
2023-03-20T04:54:26.465Z,56.05
2023-03-20T04:56:57.809Z,72.32
2023-03-20T04:59:26.918Z,63.05
2023-03-20T05:01:57.942Z,59.72
2023-03-20T05:04:26.404Z,60.35
2023-03-20T05:06:56.008Z,55.25
2023-03-20T05:09:28.450Z,64.65
2023-03-20T05:11:58.657Z,70.85
2023-03-20T05:15:00.662Z,55.38
2023-03-20T05:17:50.538Z,55.97
2023-03-20T05:20:31.154Z,53.70
2023-03-20T05:23:06.642Z,80.50
2023-03-20T05:25:44.097Z,108.57
2023-03-20T05:28:26.429Z,88.68
2023-03-20T05:31:25.073Z,70.35
2023-03-20T05:34:12.470Z,74.97
2023-03-20T05:36:50.054Z,73.97
2023-03-20T05:39:31.648Z,73.13
2023-03-20T05:42:18.790Z,69.55
2023-03-20T05:45:10.787Z,85.50
2023-03-20T05:47:47.504Z,103.65
2023-03-20T05:53:11.198Z,103.75
2023-03-20T05:55:48.872Z,124.55
2023-03-20T05:58:37.201Z,57.50
2023-03-20T06:01:34.928Z,47.42
2023-03-20T06:04:22.485Z,119.82
2023-03-20T06:07:06.420Z,80.63
2023-03-20T06:09:36.183Z,128.75
2023-03-20T06:12:10.660Z,87.78
2023-03-20T06:17:25.795Z,87.88
2023-03-20T06:20:01.318Z,74.53
2023-03-20T06:22:31.285Z,62.78
2023-03-20T06:25:00.269Z,63.88
2023-03-20T06:27:36.935Z,51.38
2023-03-20T06:30:06.179Z,43.92
2023-03-20T06:32:37.060Z,50.70
2023-03-20T06:35:09.710Z,49.60
2023-03-20T06:37:39.419Z,51.63
2023-03-20T06:40:13.635Z,47.78
2023-03-20T06:42:43.138Z,55.20
2023-03-20T06:45:12.435Z,43.75
2023-03-20T06:47:54.083Z,44.58
2023-03-20T06:50:23.261Z,54.53
2023-03-20T06:52:52.529Z,51.10
2023-03-20T06:55:39.165Z,46.22
2023-03-20T06:58:07.817Z,61.80
2023-03-20T07:00:37.804Z,43.85
2023-03-20T07:03:08.177Z,49.97
2023-03-20T07:05:38.948Z,43.05
2023-03-20T07:08:10.784Z,47.80
2023-03-20T07:10:39.297Z,42.53
2023-03-20T07:16:03.758Z,54.58
2023-03-20T07:18:38.378Z,51.55
2023-03-20T07:21:08.070Z,48.55
2023-03-20T07:23:37.321Z,49.22
2023-03-20T07:26:06.876Z,48.15
2023-03-20T07:28:36.279Z,65.28
2023-03-20T07:31:23.593Z,45.30
2023-03-20T07:33:59.505Z,46.90
2023-03-20T07:36:28.232Z,45.78
2023-03-20T07:38:57.450Z,61.22
2023-03-20T07:41:28.527Z,57.80
2023-03-20T07:44:05.094Z,48.03
2023-03-20T07:46:46.231Z,58.80
2023-03-20T07:49:21.096Z,58.63
2023-03-20T07:51:50.137Z,52.38
2023-03-20T07:54:18.853Z,44.35
2023-03-20T07:56:47.227Z,47.00
2023-03-20T07:59:16.056Z,46.00
2023-03-20T08:01:44.367Z,47.78
2023-03-20T08:04:13.494Z,48.00
2023-03-20T08:06:43.661Z,44.40
2023-03-20T08:09:12.682Z,53.58
2023-03-20T08:11:40.977Z,40.65
2023-03-20T08:14:09.698Z,39.17
2023-03-20T08:16:38.138Z,40.47
2023-03-20T08:19:06.774Z,38.70
2023-03-20T08:21:35.663Z,37.30
2023-03-20T08:24:04.116Z,40.05
2023-03-20T08:26:32.919Z,41.92
2023-03-20T08:29:02.263Z,36.30
2023-03-20T08:31:31.693Z,40.13
2023-03-20T08:34:01.119Z,35.85
2023-03-20T08:36:31.266Z,57.42
2023-03-20T08:39:00.096Z,41.47
2023-03-20T08:41:28.361Z,34.33
2023-03-20T08:43:56.857Z,40.13
2023-03-20T08:46:25.741Z,35.72
2023-03-20T08:48:54.387Z,35.30
2023-03-20T08:51:22.935Z,37.47
2023-03-20T08:53:51.548Z,34.90
2023-03-20T08:56:20.057Z,41.60
2023-03-20T08:58:48.673Z,34.80
2023-03-20T09:01:19.426Z,38.88
2023-03-20T09:03:48.078Z,36.30
2023-03-20T09:06:16.726Z,35.53
2023-03-20T09:18:26.902Z,34.17
2023-03-20T09:20:56.825Z,34.75
2023-03-20T09:23:33.122Z,39.08
2023-03-20T09:26:01.453Z,38.72
2023-03-20T09:28:33.092Z,36.45
2023-03-20T09:31:02.440Z,40.55
2023-03-20T09:33:34.085Z,33.90
2023-03-20T09:36:03.206Z,40.25
2023-03-20T09:38:33.373Z,36.28
2023-03-20T09:41:02.491Z,35.15
2023-03-20T09:43:46.004Z,32.58
2023-03-20T09:46:32.696Z,42.47
2023-03-20T09:49:19.923Z,84.53
2023-03-20T09:52:10.083Z,30.50
2023-03-20T09:54:53.507Z,31.00
2023-03-20T09:57:32.488Z,31.70
2023-03-20T10:00:07.547Z,35.60
2023-03-20T10:02:43.863Z,33.50
2023-03-20T10:05:18.603Z,28.80
2023-03-20T10:07:47.085Z,30.45
2023-03-20T10:10:16.368Z,29.65
2023-03-20T10:13:00.556Z,24.55
2023-03-20T10:15:41.024Z,27.00
2023-03-20T10:18:09.358Z,24.15
2023-03-20T10:20:43.728Z,48.80
2023-03-20T10:23:27.517Z,27.33
2023-03-20T10:25:59.600Z,29.77
2023-03-20T10:28:34.193Z,25.17
2023-03-20T10:31:17.800Z,26.23
2023-03-20T10:34:05.112Z,26.48
2023-03-20T10:36:39.088Z,27.88
2023-03-20T10:39:13.170Z,24.83
2023-03-20T10:41:45.681Z,31.33
2023-03-20T10:44:19.958Z,30.20
2023-03-20T10:46:51.612Z,24.90
2023-03-20T10:49:22.187Z,22.58
2023-03-20T10:51:56.429Z,26.08
2023-03-20T10:54:31.081Z,22.88
2023-03-20T10:57:18.433Z,20.03
2023-03-20T10:59:49.752Z,20.25
2023-03-20T11:02:20.367Z,27.77
2023-03-20T11:04:48.841Z,24.90
2023-03-20T11:07:24.332Z,26.77
2023-03-20T11:10:13.320Z,18.50
2023-03-20T11:12:43.511Z,20.55
2023-03-20T11:15:30.057Z,33.88
2023-03-20T11:17:58.749Z,27.73
2023-03-20T11:20:28.175Z,22.45
2023-03-20T11:23:00.994Z,23.55
2023-03-20T11:34:05.642Z,36.70
2023-03-20T11:36:36.824Z,38.90
2023-03-20T11:39:14.358Z,31.38
2023-03-20T11:41:54.310Z,24.95
2023-03-20T11:44:26.471Z,28.80
2023-03-20T11:47:11.274Z,28.42
2023-03-20T11:49:55.345Z,20.67
2023-03-20T11:52:28.904Z,16.48
2023-03-20T11:54:59.663Z,18.15
2023-03-20T11:57:31.223Z,17.08
2023-03-20T12:00:03.176Z,17.15
2023-03-20T12:02:33.259Z,16.17
2023-03-20T12:05:02.162Z,19.85
2023-03-20T12:07:34.776Z,23.27
2023-03-20T12:10:06.637Z,19.05
2023-03-20T12:12:36.023Z,19.60
2023-03-20T12:15:13.785Z,21.05
2023-03-20T12:18:00.817Z,22.35
2023-03-20T12:20:37.257Z,21.67
2023-03-20T12:23:17.269Z,28.02
2023-03-20T12:26:09.026Z,27.15
2023-03-20T12:29:01.459Z,19.10
2023-03-20T12:31:42.193Z,21.85
2023-03-20T12:34:20.582Z,18.00
2023-03-20T12:36:50.314Z,16.48
2023-03-20T12:39:24.323Z,21.40
2023-03-20T12:41:59.729Z,19.27
2023-03-20T12:44:44.969Z,18.52
2023-03-20T12:47:34.632Z,20.27
2023-03-20T12:50:12.409Z,24.42
2023-03-20T12:52:56.935Z,18.35
2023-03-20T12:56:03.920Z,17.88
2023-03-20T12:58:45.961Z,21.63
2023-03-20T13:01:21.099Z,23.02
2023-03-20T13:03:55.734Z,17.45
2023-03-20T13:06:41.342Z,20.73
2023-03-20T13:09:09.957Z,18.10
2023-03-20T13:11:52.599Z,17.00
2023-03-20T13:14:35.380Z,22.60
2023-03-20T13:17:26.699Z,21.55
2023-03-20T13:20:13.915Z,18.13
2023-03-20T13:23:01.892Z,23.40
2023-03-20T13:25:49.197Z,22.52
2023-03-20T13:28:36.345Z,18.77
2023-03-20T13:31:08.175Z,17.55
2023-03-20T13:33:52.749Z,22.42
2023-03-20T13:36:43.883Z,32.03
2023-03-20T13:39:19.884Z,34.47
2023-03-20T13:41:49.476Z,28.33
2023-03-20T13:44:21.071Z,34.20
2023-03-20T13:46:54.609Z,37.15
2023-03-20T13:49:29.286Z,44.85
2023-03-20T13:52:08.570Z,26.88
2023-03-20T13:54:53.895Z,26.75
2023-03-20T13:57:37.812Z,25.30
2023-03-20T14:00:08.778Z,31.38
2023-03-20T14:02:46.763Z,27.65
2023-03-20T14:05:22.702Z,49.72
2023-03-20T14:07:57.472Z,85.65
2023-03-20T14:10:26.021Z,49.47
2023-03-20T14:15:39.830Z,67.47
2023-03-20T14:18:16.749Z,35.05
2023-03-20T14:20:52.643Z,34.40
2023-03-20T14:23:36.613Z,19.27
2023-03-20T14:26:23.387Z,25.40
2023-03-20T14:28:54.412Z,19.95
2023-03-20T14:31:25.894Z,21.00
2023-03-20T14:34:08.568Z,21.08
2023-03-20T14:36:51.206Z,28.55
2023-03-20T14:39:32.091Z,16.70
2023-03-20T14:42:06.690Z,24.60
2023-03-20T14:44:46.773Z,64.97
2023-03-20T14:47:21.261Z,82.82
2023-03-20T14:49:52.762Z,39.33
2023-03-20T14:52:40.026Z,138.88
2023-03-20T14:55:20.897Z,115.63
2023-03-20T14:57:56.468Z,82.97
2023-03-20T15:00:27.761Z,84.13
2023-03-20T15:03:19.547Z,43.17
2023-03-20T15:05:48.456Z,37.28
2023-03-20T15:08:25.170Z,35.45
2023-03-20T15:10:57.586Z,29.85
2023-03-20T15:13:26.548Z,24.00
2023-03-20T15:19:10.466Z,19.73
2023-03-20T15:21:41.417Z,27.70
2023-03-20T15:24:18.282Z,37.28
2023-03-20T15:26:46.909Z,38.15
2023-03-20T15:29:19.199Z,29.00
2023-03-20T15:32:06.542Z,27.40
2023-03-20T15:34:41.756Z,33.90
2023-03-20T15:37:15.348Z,48.15
2023-03-20T15:39:47.072Z,41.65
2023-03-20T15:42:17.327Z,57.70
2023-03-20T15:44:48.315Z,45.17
2023-03-20T15:47:21.005Z,43.60
2023-03-20T15:49:53.095Z,61.53
2023-03-20T15:52:31.275Z,45.50
2023-03-20T15:55:00.791Z,40.28
2023-03-20T15:57:35.920Z,50.13
2023-03-20T16:00:06.034Z,154.10
2023-03-20T16:02:36.321Z,143.05
2023-03-20T16:09:02.474Z,54.58
2023-03-20T16:11:41.114Z,64.80
2023-03-20T16:14:16.364Z,56.72
2023-03-20T16:16:45.031Z,68.50
2023-03-20T16:19:15.318Z,97.13
2023-03-20T16:22:03.862Z,107.10
2023-03-20T16:24:38.503Z,89.47
2023-03-20T16:27:14.504Z,60.58
2023-03-20T16:29:44.245Z,61.08
2023-03-20T16:32:22.251Z,67.82
2023-03-20T16:34:52.042Z,63.28
2023-03-20T16:37:28.146Z,68.20
2023-03-20T16:40:06.067Z,65.03
2023-03-20T16:42:34.522Z,62.08
2023-03-20T16:45:05.401Z,121.35
2023-03-20T16:47:39.264Z,83.28
2023-03-20T16:50:11.120Z,71.00
2023-03-20T16:52:41.244Z,70.03
2023-03-20T16:55:15.468Z,55.35
2023-03-20T16:57:47.182Z,63.80
2023-03-20T17:00:33.968Z,69.20
2023-03-20T17:03:16.641Z,60.38
2023-03-20T17:05:47.884Z,71.22
2023-03-20T17:08:17.229Z,68.00
2023-03-20T17:10:49.823Z,57.92
2023-03-20T17:13:17.738Z,68.25
2023-03-20T17:15:46.109Z,77.43
2023-03-20T17:18:15.000Z,55.50
2023-03-20T17:20:44.368Z,31.08
2023-03-20T17:23:18.471Z,18.80
2023-03-20T17:25:50.064Z,14.52
2023-03-20T17:28:21.123Z,29.20
2023-03-20T17:30:50.932Z,50.05
2023-03-20T17:33:21.236Z,53.90
2023-03-20T17:35:54.343Z,68.38
2023-03-20T17:38:22.957Z,57.00
2023-03-20T17:40:52.210Z,81.05
2023-03-20T17:43:23.473Z,59.67
2023-03-20T17:45:52.257Z,29.20
2023-03-20T17:48:21.882Z,27.65
2023-03-20T17:50:51.171Z,54.58
2023-03-20T17:53:24.302Z,50.25
2023-03-20T17:55:53.424Z,28.85
2023-03-20T17:58:23.195Z,24.85
2023-03-20T18:00:52.631Z,35.67
2023-03-20T18:03:21.387Z,17.77
2023-03-20T18:05:51.583Z,21.95
2023-03-20T18:08:21.686Z,19.80
2023-03-20T18:10:52.260Z,17.20
2023-03-20T18:13:22.081Z,19.05
2023-03-20T18:15:52.099Z,17.67
2023-03-20T18:18:23.723Z,23.95
2023-03-20T18:20:54.800Z,29.50
2023-03-20T18:23:23.693Z,24.30
2023-03-20T18:25:52.277Z,23.38
2023-03-20T18:28:23.075Z,29.48
2023-03-20T18:30:52.102Z,31.95
2023-03-20T18:33:25.315Z,96.55
2023-03-20T18:35:54.669Z,31.58
2023-03-20T18:38:24.832Z,44.95
2023-03-20T18:40:53.472Z,36.08
2023-03-20T18:43:22.128Z,43.03
2023-03-20T18:45:50.863Z,123.05
2023-03-20T18:48:19.088Z,81.15
2023-03-20T18:50:51.048Z,31.10
2023-03-20T18:53:19.779Z,33.53
2023-03-20T18:55:48.351Z,82.68
2023-03-20T18:58:21.232Z,19.10
2023-03-20T19:00:50.504Z,19.20
2023-03-20T19:03:18.517Z,21.27
2023-03-20T19:05:47.603Z,24.38
2023-03-20T19:08:16.368Z,17.55
2023-03-20T19:10:45.995Z,14.95
2023-03-20T19:13:16.675Z,11.05
2023-03-20T19:15:46.077Z,35.70
2023-03-20T19:18:17.142Z,49.75
2023-03-20T19:20:48.523Z,140.90
2023-03-20T19:23:18.846Z,201.60
2023-03-20T19:25:48.488Z,36.13
2023-03-20T19:28:37.795Z,52.25
2023-03-20T19:31:09.607Z,25.95
2023-03-20T19:33:38.906Z,36.72
2023-03-20T19:36:08.678Z,24.00
2023-03-20T19:38:37.689Z,16.05
2023-03-20T19:41:08.706Z,15.50
2023-03-20T19:43:51.643Z,24.77
2023-03-20T19:46:38.040Z,25.60
2023-03-20T19:49:17.400Z,18.33
2023-03-20T19:51:46.740Z,14.25
2023-03-20T19:54:15.075Z,19.65
2023-03-20T19:56:44.262Z,17.58
2023-03-20T19:59:15.989Z,14.70
2023-03-20T20:01:46.085Z,27.90
2023-03-20T20:04:15.082Z,22.10
2023-03-20T20:06:47.143Z,36.30
2023-03-20T20:09:16.464Z,23.48
2023-03-20T20:11:48.006Z,22.50
2023-03-20T20:14:17.012Z,30.63
2023-03-20T20:16:47.119Z,35.67
2023-03-20T20:19:16.506Z,40.67
2023-03-20T20:24:34.790Z,61.50
2023-03-20T20:27:17.549Z,65.30
2023-03-20T20:29:48.201Z,35.83
2023-03-20T20:32:18.485Z,22.25
2023-03-20T20:40:48.361Z,20.65
2023-03-20T20:43:39.070Z,28.35
2023-03-20T20:46:05.966Z,29.92
2023-03-20T20:48:35.979Z,29.17
2023-03-20T20:51:04.954Z,30.20
2023-03-20T20:53:33.299Z,16.63
2023-03-20T20:56:01.926Z,20.48
2023-03-20T20:58:30.539Z,21.08
2023-03-20T21:01:01.307Z,25.30
2023-03-20T21:03:29.557Z,25.05
2023-03-20T21:06:06.392Z,38.85
2023-03-20T21:08:35.110Z,25.13
2023-03-20T21:11:14.885Z,24.40
2023-03-20T21:13:43.508Z,20.73
2023-03-20T21:16:12.543Z,19.10
2023-03-20T21:18:40.851Z,18.60
2023-03-20T21:21:10.883Z,21.70
2023-03-20T21:23:39.310Z,35.20
2023-03-20T21:26:08.242Z,29.63
2023-03-20T21:28:37.495Z,24.08
2023-03-20T21:31:23.901Z,22.33
2023-03-20T21:33:54.426Z,28.55
2023-03-20T21:36:23.559Z,34.15
2023-03-20T21:39:09.360Z,37.67
2023-03-20T21:41:39.040Z,35.35
2023-03-20T21:44:07.903Z,36.35
2023-03-20T21:50:19.116Z,24.13
2023-03-20T21:56:09.365Z,25.60
2023-03-20T21:58:33.191Z,28.02
2023-03-20T22:01:34.003Z,29.92
2023-03-20T22:04:19.097Z,26.30
2023-03-20T22:07:23.898Z,26.50
2023-03-20T22:12:50.012Z,31.98
2023-03-20T22:15:33.910Z,27.08
2023-03-20T22:18:12.123Z,35.78
2023-03-20T22:21:07.397Z,34.30
2023-03-20T22:27:03.445Z,36.28
2023-03-20T22:32:27.802Z,25.35
2023-03-20T22:35:33.099Z,24.02
2023-03-20T22:40:51.790Z,26.20
2023-03-20T22:43:44.547Z,36.42
2023-03-20T22:46:05.588Z,23.85
2023-03-20T22:48:40.440Z,23.55
2023-03-20T22:51:08.946Z,19.50
2023-03-20T22:53:37.578Z,20.88
2023-03-20T22:56:06.962Z,20.25
2023-03-20T22:58:35.860Z,20.20
2023-03-20T23:01:04.575Z,14.43
2023-03-20T23:03:41.526Z,12.18
2023-03-20T23:06:23.829Z,14.88
2023-03-20T23:08:56.566Z,38.33
2023-03-20T23:11:43.958Z,27.65
2023-03-20T23:14:44.840Z,17.50
2023-03-20T23:17:14.480Z,9.73
2023-03-20T23:19:54.307Z,14.77
2023-03-20T23:22:30.128Z,15.90
2023-03-20T23:25:02.851Z,14.05
2023-03-20T23:27:38.232Z,10.20
2023-03-20T23:30:07.201Z,7.72
2023-03-20T23:32:38.933Z,5.55
2023-03-20T23:35:08.286Z,5.95
2023-03-20T23:37:36.866Z,7.68
2023-03-20T23:40:06.403Z,8.65
2023-03-20T23:42:34.841Z,6.80
2023-03-20T23:45:17.123Z,5.82
2023-03-20T23:47:45.906Z,8.10
2023-03-20T23:50:26.450Z,6.78
2023-03-20T23:53:09.534Z,7.40
2023-03-20T23:55:46.735Z,6.90
2023-03-20T23:58:15.738Z,7.07
